Terminal Aerodrome Forecast
Issued by NWS Wakefield, VA

Current Version | Previous Version | Text Only | Print | Product List | Glossary On
Versions: 1 2 3 4 5 6 7 8 9 10 11 12 13 14 15 16 17 18
000
FTUS41 KAKQ 271438 AAA
TAFORF
TAF AMD
KORF 271438Z 2715/2812 VRB04KT P6SM SCT090
     FM272000 VRB05KT P6SM VCSH BKN090
     FM280000 VRB04KT P6SM BKN080=

USA.gov is the U.S. government's official web portal to all federal, state and local government web resources and services.